createdAt,value
2023-09-03T00:00:02.060Z,1016.7448920818607
2023-09-03T00:15:01.700Z,1016.6455321037164
2023-09-03T00:30:02.406Z,1016.9251093644586
2023-09-03T00:45:02.066Z,1017.1666921691198
2023-09-03T01:00:01.682Z,1017.1201475592301
2023-09-03T01:15:02.367Z,1017.0859657481623
2023-09-03T01:30:02.010Z,1017.2434648155505
2023-09-03T01:45:01.625Z,1017.3021779993863
2023-09-03T02:00:02.254Z,1017.5009348934118
2023-09-03T02:15:01.874Z,1017.1186131416289
2023-09-03T02:30:01.566Z,1016.7282028897368
2023-09-03T02:45:02.134Z,1016.7014684316933
2023-09-03T03:00:01.759Z,1016.6907402184756
2023-09-03T03:15:01.424Z,1016.8898324358026
2023-09-03T03:30:02.074Z,1017.3416553917865
2023-09-03T03:45:01.748Z,1017.4445715388329
2023-09-03T04:00:01.517Z,1017.3700092281556
2023-09-03T04:15:02.120Z,1017.2924398361915
2023-09-03T04:30:01.659Z,1017.6057442827008
2023-09-03T04:45:02.316Z,1017.9688612652993
2023-09-03T05:00:01.956Z,1017.8918826092003
2023-09-03T05:15:01.647Z,1018.1943308205435
2023-09-03T05:30:02.299Z,1018.468399337643
2023-09-03T05:45:01.962Z,1018.6645565926146
2023-09-03T06:00:01.546Z,1018.9829314697164
2023-09-03T06:15:02.190Z,1019.1029459859653
2023-09-03T06:30:01.808Z,1019.1176084742306
2023-09-03T06:45:01.474Z,1019.3954833825061
2023-09-03T07:00:02.099Z,1019.3593326990986
2023-09-03T07:15:02.015Z,1019.3445481397803
2023-09-03T07:30:01.657Z,1019.3051776524921
2023-09-03T07:45:02.313Z,1019.364929101114
2023-09-03T08:00:01.983Z,1019.7678190240865
2023-09-03T08:15:01.677Z,1019.7326692250376
2023-09-03T08:30:02.348Z,1019.793909926433
2023-09-03T08:45:02.013Z,1020.0737185329195
2023-09-03T09:00:01.617Z,1020.1553210452205
2023-09-03T09:15:02.276Z,1020.2224867372108
2023-09-03T09:30:01.893Z,1020.1102332805235
2023-09-03T09:45:01.513Z,1019.9903326708395
2023-09-03T10:00:02.293Z,1020.0854739085331
2023-09-03T10:15:01.994Z,1020.222617415139
2023-09-03T10:30:01.639Z,1020.1128920688805
2023-09-03T10:45:02.308Z,1020.206612505289
2023-09-03T11:00:01.921Z,1020.180307062943
2023-09-03T11:15:01.552Z,1020.3055901543374
2023-09-03T11:30:02.220Z,1020.3090833900065
2023-09-03T11:45:01.921Z,1020.4431478462906
2023-09-03T12:00:01.545Z,1020.460329542032
2023-09-03T12:15:02.190Z,1020.3786139392392
2023-09-03T12:30:01.786Z,1020.332865094094
2023-09-03T12:45:01.400Z,1020.088993040978
2023-09-03T13:00:01.983Z,1020.1137858072731
2023-09-03T13:15:01.630Z,1019.9864923577102
2023-09-03T13:30:02.289Z,1020.0037657948747
2023-09-03T13:45:01.897Z,1019.9549757266838
2023-09-03T14:00:01.542Z,1019.9487849815368
2023-09-03T14:15:02.381Z,1019.7933547690083
2023-09-03T14:30:02.065Z,1019.5226917163338
2023-09-03T14:45:01.723Z,1019.5306928408428
2023-09-03T15:00:01.419Z,1019.6603159263657
2023-09-03T15:15:02.156Z,1019.7151413883121
2023-09-03T15:30:01.732Z,1019.636064320444
2023-09-03T15:45:01.393Z,1019.7061843156142
2023-09-03T16:00:02.006Z,1019.6676351432616
2023-09-03T16:15:01.600Z,1019.5661865588975
2023-09-03T16:30:02.270Z,1019.6258250872551
2023-09-03T16:45:01.951Z,1019.5322218191026
2023-09-03T17:00:01.558Z,1019.5302953094765
2023-09-03T17:15:02.176Z,1019.7266672753973
2023-09-03T17:30:01.810Z,1019.7750866247333
2023-09-03T17:45:01.440Z,1019.7493519330911
2023-09-03T18:00:02.052Z,1019.9414111820095
2023-09-03T18:15:01.678Z,1019.9352007201496
2023-09-03T18:30:01.339Z,1020.0863757847178
2023-09-03T18:45:01.978Z,1020.031542028576
2023-09-03T19:00:01.587Z,1019.9979995331784
2023-09-03T19:15:01.244Z,1020.020072529778
2023-09-03T19:30:01.939Z,1020.0207267973996
2023-09-03T19:45:01.601Z,1019.8742644377304
2023-09-03T20:00:01.168Z,1019.8165243566389
2023-09-03T20:15:01.806Z,1019.8717618572981
2023-09-03T20:30:01.495Z,1019.8163272578508
2023-09-03T20:45:02.119Z,1019.9053796881328
2023-09-03T21:00:01.730Z,1019.8500443644942
2023-09-03T21:15:01.367Z,1019.8240760709934
2023-09-03T21:30:02.051Z,1019.8810002323619
2023-09-03T21:45:01.647Z,1019.780618595466
2023-09-03T22:00:01.208Z,1019.951705290322
2023-09-03T22:15:01.887Z,1019.9619170010263
2023-09-03T22:30:01.555Z,1020.0139495043645
2023-09-03T22:45:01.220Z,1019.9796848848753
2023-09-03T23:00:01.847Z,1019.8858073963956
2023-09-03T23:15:01.860Z,1019.9540815760596
2023-09-03T23:30:01.509Z,1020.0084854304674
2023-09-03T23:45:02.194Z,1020.0476356466347
